createdAt,value
2023-03-25T00:03:37.686Z,13.62
2023-03-25T00:08:39.778Z,13.58
2023-03-25T00:13:42.149Z,13.55
2023-03-25T00:18:43.952Z,13.56
2023-03-25T00:23:46.780Z,13.52
2023-03-25T00:28:49.325Z,13.51
2023-03-25T00:33:51.345Z,13.45
2023-03-25T00:38:53.302Z,13.40
2023-03-25T00:43:57.388Z,13.45
2023-03-25T00:49:00.115Z,13.37
2023-03-25T00:54:02.194Z,13.35
2023-03-25T00:59:03.803Z,13.32
2023-03-25T01:04:12.057Z,13.37
2023-03-25T01:09:15.486Z,13.31
2023-03-25T01:14:20.889Z,13.28
2023-03-25T01:19:23.288Z,13.26
2023-03-25T01:24:25.828Z,13.20
2023-03-25T01:29:27.530Z,13.20
2023-03-25T01:34:32.566Z,13.23
2023-03-25T01:39:34.447Z,13.22
2023-03-25T01:44:39.186Z,13.24
2023-03-25T01:49:44.580Z,13.12
2023-03-25T01:54:47.579Z,13.20
2023-03-25T01:59:51.887Z,13.10
2023-03-25T02:05:25.983Z,13.07
2023-03-25T02:10:27.689Z,13.03
2023-03-25T02:15:44.852Z,13.02
2023-03-25T02:20:59.405Z,12.99
2023-03-25T02:26:13.280Z,12.99
2023-03-25T02:31:34.834Z,12.98
2023-03-25T02:36:57.141Z,12.92
2023-03-25T02:42:03.951Z,12.90
2023-03-25T02:47:17.253Z,12.91
2023-03-25T02:52:29.129Z,12.79
2023-03-25T02:57:36.537Z,12.74
2023-03-25T03:02:39.181Z,12.67
2023-03-25T03:07:44.744Z,12.68
2023-03-25T03:12:49.418Z,12.63
2023-03-25T03:18:13.439Z,12.62
2023-03-25T03:23:30.408Z,12.53
2023-03-25T03:28:46.542Z,12.46
2023-03-25T03:33:53.542Z,12.45
2023-03-25T03:39:01.645Z,12.51
2023-03-25T03:44:16.984Z,12.48
2023-03-25T03:49:23.785Z,12.46
2023-03-25T03:54:31.660Z,12.45
2023-03-25T03:59:47.758Z,12.45
2023-03-25T04:04:51.020Z,12.40
2023-03-25T04:10:02.851Z,12.39
2023-03-25T04:15:06.958Z,12.34
2023-03-25T04:20:13.518Z,12.36
2023-03-25T04:25:15.322Z,12.34
2023-03-25T04:30:19.667Z,12.29
2023-03-25T04:35:21.616Z,12.27
2023-03-25T04:40:25.655Z,12.22
2023-03-25T04:45:28.826Z,12.19
2023-03-25T04:50:31.641Z,12.23
2023-03-25T04:55:34.680Z,12.17
2023-03-25T05:00:36.281Z,12.15
2023-03-25T05:05:38.403Z,12.13
2023-03-25T05:10:40.190Z,12.11
2023-03-25T05:15:43.208Z,12.09
2023-03-25T05:20:46.994Z,12.10
2023-03-25T05:25:51.193Z,12.13
2023-03-25T05:30:53.079Z,12.10
2023-03-25T05:35:54.958Z,12.12
2023-03-25T05:40:56.836Z,12.11
2023-03-25T05:45:58.468Z,12.11
2023-03-25T05:51:04.343Z,12.12
2023-03-25T05:56:06.349Z,12.12
2023-03-25T06:01:17.000Z,12.20
2023-03-25T06:06:27.845Z,12.30
2023-03-25T06:11:29.568Z,12.39
2023-03-25T06:16:33.261Z,12.56
2023-03-25T06:21:35.038Z,12.72
2023-03-25T06:26:37.300Z,12.99
2023-03-25T06:31:39.899Z,13.22
2023-03-25T06:36:41.673Z,13.23
2023-03-25T06:41:43.294Z,13.20
2023-03-25T06:46:50.765Z,13.23
2023-03-25T06:51:58.969Z,13.23
2023-03-25T06:57:00.635Z,13.21
2023-03-25T07:02:02.344Z,13.24
2023-03-25T07:07:04.087Z,13.27
2023-03-25T07:12:07.736Z,13.37
2023-03-25T07:17:10.677Z,13.59
2023-03-25T07:22:12.299Z,13.48
2023-03-25T07:27:15.718Z,13.41
2023-03-25T07:32:24.998Z,13.50
2023-03-25T07:37:26.876Z,13.39
2023-03-25T07:42:28.553Z,13.48
2023-03-25T07:47:50.474Z,13.60
2023-03-25T07:52:52.191Z,13.61
2023-03-25T07:57:53.916Z,13.74
2023-03-25T08:02:56.236Z,13.96
2023-03-25T08:08:00.965Z,14.17
2023-03-25T08:13:02.578Z,14.26
2023-03-25T08:18:05.502Z,14.39
2023-03-25T08:23:10.508Z,14.33
2023-03-25T08:28:13.390Z,14.25
2023-03-25T08:33:18.439Z,14.12
2023-03-25T08:38:21.559Z,14.04
2023-03-25T08:43:23.154Z,14.14
2023-03-25T08:48:24.899Z,14.21
2023-03-25T08:53:27.181Z,14.21
2023-03-25T08:58:28.839Z,14.26
2023-03-25T09:03:30.554Z,14.28
2023-03-25T09:08:33.116Z,14.39
2023-03-25T09:13:34.717Z,14.02
2023-03-25T09:18:36.827Z,14.08
2023-03-25T09:23:38.444Z,14.16
2023-03-25T09:28:40.223Z,14.19
2023-03-25T09:33:42.032Z,14.36
2023-03-25T09:38:43.807Z,14.43
2023-03-25T09:44:05.947Z,14.36
2023-03-25T09:49:21.515Z,14.34
2023-03-25T09:54:27.861Z,14.41
2023-03-25T09:59:41.960Z,14.37
2023-03-25T10:05:03.768Z,14.41
2023-03-25T10:10:38.166Z,14.67
2023-03-25T10:15:49.243Z,14.71
2023-03-25T10:21:29.634Z,14.87
2023-03-25T10:26:42.774Z,14.80
2023-03-25T10:31:56.133Z,14.86
2023-03-25T10:37:10.339Z,14.84
2023-03-25T10:42:30.558Z,14.77
2023-03-25T10:47:38.698Z,14.97
2023-03-25T10:52:40.843Z,14.73
2023-03-25T10:57:43.034Z,14.75
2023-03-25T11:02:46.402Z,14.69
2023-03-25T11:07:55.090Z,14.77
2023-03-25T11:13:01.744Z,15.01
2023-03-25T11:18:22.172Z,15.08
2023-03-25T11:23:51.836Z,15.18
2023-03-25T11:28:56.028Z,15.26
2023-03-25T11:34:20.107Z,15.10
2023-03-25T11:39:40.062Z,15.26
2023-03-25T11:44:42.104Z,15.28
2023-03-25T11:49:49.379Z,15.47
2023-03-25T11:54:53.703Z,15.66
2023-03-25T12:00:08.256Z,15.97
2023-03-25T12:05:16.556Z,16.32
2023-03-25T12:10:39.824Z,16.40
2023-03-25T12:15:49.576Z,16.26
2023-03-25T12:21:02.172Z,15.72
2023-03-25T12:26:13.121Z,15.60
2023-03-25T12:31:29.927Z,15.51
2023-03-25T12:36:31.873Z,15.85
2023-03-25T12:42:10.854Z,15.67
2023-03-25T12:47:23.713Z,16.07
2023-03-25T12:52:43.468Z,16.09
2023-03-25T12:58:23.569Z,16.12
2023-03-25T13:03:34.454Z,16.30
2023-03-25T13:08:41.920Z,16.51
2023-03-25T13:13:46.257Z,16.47
2023-03-25T13:18:54.056Z,16.62
2023-03-25T13:24:01.585Z,16.72
2023-03-25T13:29:05.577Z,16.82
2023-03-25T13:34:30.691Z,16.83
2023-03-25T13:39:54.503Z,16.87
2023-03-25T13:44:59.147Z,16.93
2023-03-25T13:50:05.736Z,16.67
2023-03-25T13:55:16.888Z,16.73
2023-03-25T14:00:36.732Z,16.80
2023-03-25T14:06:02.773Z,16.70
2023-03-25T14:11:29.176Z,16.57
2023-03-25T14:16:36.223Z,16.64
2023-03-25T14:21:38.370Z,16.43
2023-03-25T14:26:50.477Z,16.10
2023-03-25T14:32:16.675Z,16.21
2023-03-25T14:37:27.131Z,16.43
2023-03-25T14:42:43.165Z,17.12
2023-03-25T14:47:55.847Z,17.61
2023-03-25T14:53:02.915Z,17.49
2023-03-25T14:58:26.201Z,16.94
2023-03-25T15:03:34.878Z,16.27
2023-03-25T15:08:40.400Z,16.31
2023-03-25T15:13:52.805Z,16.38
2023-03-25T15:18:54.717Z,16.27
2023-03-25T15:24:11.901Z,16.62
2023-03-25T15:29:17.322Z,16.54
2023-03-25T15:34:50.916Z,16.43
2023-03-25T15:40:13.783Z,16.07
2023-03-25T15:45:30.789Z,15.87
2023-03-25T15:50:53.131Z,16.00
2023-03-25T15:56:21.671Z,15.92
2023-03-25T16:01:32.788Z,15.63
2023-03-25T16:06:40.840Z,15.59
2023-03-25T16:11:46.202Z,15.58
2023-03-25T16:16:55.068Z,15.50
2023-03-25T16:22:02.404Z,15.45
2023-03-25T16:27:12.350Z,15.26
2023-03-25T16:32:20.929Z,15.07
2023-03-25T16:37:22.847Z,14.94
2023-03-25T16:42:28.057Z,14.67
2023-03-25T16:47:33.756Z,14.50
2023-03-25T16:52:37.162Z,14.35
2023-03-25T16:57:40.764Z,14.28
2023-03-25T17:02:43.416Z,13.99
2023-03-25T17:07:51.060Z,13.20
2023-03-25T17:12:59.500Z,12.98
2023-03-25T17:18:03.671Z,12.83
2023-03-25T17:23:16.155Z,12.73
2023-03-25T17:28:33.997Z,12.69
2023-03-25T17:33:39.124Z,11.59
2023-03-25T17:38:46.342Z,11.49
2023-03-25T17:43:51.157Z,11.58
2023-03-25T17:48:55.338Z,11.44
2023-03-25T17:53:57.539Z,11.33
2023-03-25T17:59:05.003Z,11.16
2023-03-25T18:04:06.866Z,11.05
2023-03-25T18:09:20.586Z,11.16
2023-03-25T18:14:24.124Z,11.02
2023-03-25T18:19:31.362Z,10.92
2023-03-25T18:24:34.139Z,10.74
2023-03-25T18:29:37.524Z,10.66
2023-03-25T18:34:39.231Z,10.64
2023-03-25T18:39:41.016Z,10.59
2023-03-25T18:44:42.684Z,10.49
2023-03-25T18:49:44.322Z,10.39
2023-03-25T18:54:45.953Z,10.40
2023-03-25T18:59:47.587Z,10.22
2023-03-25T19:05:00.211Z,10.19
2023-03-25T19:10:02.490Z,10.04
2023-03-25T19:15:04.633Z,9.96
2023-03-25T19:20:07.591Z,9.87
2023-03-25T19:25:09.540Z,9.85
2023-03-25T19:30:15.406Z,9.87
2023-03-25T19:35:19.278Z,9.90
2023-03-25T19:40:24.054Z,9.95
2023-03-25T19:45:27.287Z,9.95
2023-03-25T19:50:33.305Z,9.94
2023-03-25T19:55:35.203Z,9.89
2023-03-25T20:00:37.023Z,9.86
2023-03-25T20:05:38.874Z,9.91
2023-03-25T20:10:41.347Z,9.84
2023-03-25T20:15:43.043Z,9.87
2023-03-25T20:20:44.703Z,9.92
2023-03-25T20:25:47.398Z,9.97
2023-03-25T20:30:49.000Z,9.87
2023-03-25T20:35:51.245Z,9.95
2023-03-25T20:40:54.477Z,10.06
2023-03-25T20:45:56.909Z,10.29
2023-03-25T20:51:00.966Z,10.23
2023-03-25T20:56:04.254Z,10.14
2023-03-25T21:01:06.012Z,10.17
2023-03-25T21:06:20.963Z,10.00
2023-03-25T21:11:25.913Z,9.84
2023-03-25T21:16:27.764Z,9.67
2023-03-25T21:21:30.787Z,9.53
2023-03-25T21:26:33.282Z,9.50
2023-03-25T21:31:35.025Z,9.42
2023-03-25T21:36:36.868Z,9.31
2023-03-25T21:41:38.753Z,9.34
2023-03-25T21:46:40.917Z,9.30
2023-03-25T21:51:44.223Z,9.30
2023-03-25T21:56:47.129Z,9.24
2023-03-25T22:01:48.836Z,9.24
2023-03-25T22:06:50.535Z,9.32
2023-03-25T22:11:52.258Z,9.37
2023-03-25T22:16:54.098Z,9.35
2023-03-25T22:21:56.487Z,9.26
2023-03-25T22:26:58.244Z,9.30
2023-03-25T22:32:06.989Z,9.28
2023-03-25T22:37:08.856Z,9.21
2023-03-25T22:42:10.838Z,9.13
2023-03-25T22:47:12.588Z,9.08
2023-03-25T22:52:14.275Z,9.08
2023-03-25T22:57:16.302Z,9.06
2023-03-25T23:02:18.575Z,9.08
2023-03-25T23:07:20.299Z,9.05
2023-03-25T23:17:26.455Z,9.22
2023-03-25T23:22:28.098Z,9.30
2023-03-25T23:27:30.630Z,9.36
2023-03-25T23:32:35.096Z,9.39
2023-03-25T23:37:36.748Z,9.37
2023-03-25T23:42:38.717Z,9.39
2023-03-25T23:47:40.374Z,9.47
2023-03-25T23:52:42.013Z,9.54
2023-03-25T23:57:43.667Z,9.48
